Time;durP1;ratioP1;P1;durP2;ratioP2;P2;SDS_P1;SDS_P2;PMS_P1;PMS_P2;Temp;Humidity;BMP_temperature;BMP_pressure;BME280_temperature;BME280_humidity;BME280_pressure;Samples;Min_cycle;Max_cycle;Signal;HPM_P1;HPM_P2
2023/12/09 00:02:11;;;;;;;207.43;35.87;;;1.50;96.30;;;;;;4977115;28;20556;-91
2023/12/09 00:04:37;;;;;;;206.93;35.07;;;1.50;96.30;;;;;;4977397;28;20254;-92
2023/12/09 00:07:02;;;;;;;228.87;41.17;;;1.60;96.30;;;;;;4994530;28;20583;-91
2023/12/09 00:09:29;;;;;;;256.03;41.83;;;1.60;96.30;;;;;;4993833;28;20221;-90
2023/12/09 00:11:55;;;;;;;109.47;40.27;;;1.50;96.30;;;;;;4976667;28;20177;-87
2023/12/09 00:14:20;;;;;;;157.77;34.73;;;1.60;96.30;;;;;;4994180;28;20178;-88
2023/12/09 00:16:46;;;;;;;142.93;34.00;;;1.80;96.40;;;;;;4994043;28;20174;-88
2023/12/09 00:19:12;;;;;;;138.67;33.77;;;1.90;96.40;;;;;;4976644;28;20201;-87
2023/12/09 00:21:38;;;;;;;120.10;34.70;;;2.00;96.40;;;;;;4976691;28;20174;-87
2023/12/09 00:24:04;;;;;;;126.37;34.90;;;1.80;96.20;;;;;;4993984;28;20201;-87
2023/12/09 00:26:30;;;;;;;111.57;33.07;;;2.00;96.40;;;;;;4976607;28;20170;-87
2023/12/09 00:28:56;;;;;;;95.93;30.63;;;2.20;96.50;;;;;;4976255;28;20279;-87
2023/12/09 00:31:22;;;;;;;82.07;28.07;;;2.30;96.50;;;;;;4993987;28;20198;-87
2023/12/09 00:33:47;;;;;;;71.50;29.00;;;2.40;96.50;;;;;;4992934;28;20541;-87
2023/12/09 00:36:12;;;;;;;73.23;28.30;;;2.50;96.50;;;;;;4976525;28;20714;-87
2023/12/09 00:38:39;;;;;;;73.33;34.40;;;2.50;96.50;;;;;;4976075;28;20210;-86
2023/12/09 00:41:05;;;;;;;62.37;34.13;;;2.30;96.30;;;;;;4976500;28;20270;-87
2023/12/09 00:43:31;;;;;;;66.17;33.63;;;2.30;96.40;;;;;;4976328;28;20224;-87
2023/12/09 00:45:57;;;;;;;65.40;32.97;;;2.30;96.30;;;;;;4976218;28;20185;-87
2023/12/09 00:48:22;;;;;;;65.33;34.07;;;2.30;96.30;;;;;;4976197;28;20203;-87
2023/12/09 00:50:48;;;;;;;64.13;35.83;;;2.30;96.30;;;;;;4976259;28;20240;-87
2023/12/09 00:53:13;;;;;;;65.70;34.93;;;2.30;96.30;;;;;;4993636;28;20174;-87
2023/12/09 00:55:39;;;;;;;59.93;34.30;;;2.30;96.20;;;;;;4976263;28;20178;-87
2023/12/09 00:58:04;;;;;;;60.03;33.90;;;2.30;96.10;;;;;;4975771;28;20194;-87
2023/12/09 01:00:30;;;;;;;66.50;34.43;;;2.30;96.20;;;;;;4975962;28;20217;-87
2023/12/09 01:02:55;;;;;;;59.63;26.27;;;2.30;96.10;;;;;;4976245;28;20236;-87
2023/12/09 01:05:21;;;;;;;55.27;25.13;;;2.40;96.10;;;;;;4993359;28;20207;-87
2023/12/09 01:07:46;;;;;;;69.53;34.70;;;2.20;96.00;;;;;;4976659;28;20245;-87
2023/12/09 01:10:12;;;;;;;75.10;39.27;;;2.30;96.00;;;;;;4997691;28;20273;-87
2023/12/09 01:12:38;;;;;;;74.37;28.90;;;2.20;96.00;;;;;;4980007;28;20171;-86
2023/12/09 01:15:04;;;;;;;74.43;26.80;;;2.20;96.00;;;;;;4997740;28;20175;-87
2023/12/09 01:17:29;;;;;;;84.30;37.80;;;2.10;95.90;;;;;;4997491;28;20262;-87
2023/12/09 01:19:55;;;;;;;88.47;38.43;;;2.10;95.90;;;;;;4997108;28;20310;-87
2023/12/09 01:22:20;;;;;;;113.50;42.90;;;2.20;95.90;;;;;;4997425;28;20205;-86
2023/12/09 01:24:46;;;;;;;95.90;29.80;;;2.10;95.90;;;;;;4979859;28;20204;-87
2023/12/09 01:27:11;;;;;;;111.97;35.60;;;2.10;95.90;;;;;;4980026;28;20189;-87
2023/12/09 01:29:37;;;;;;;115.47;40.10;;;2.00;95.90;;;;;;4979786;28;20199;-87
2023/12/09 01:32:03;;;;;;;94.37;39.07;;;2.00;95.90;;;;;;4979529;28;20199;-87
2023/12/09 01:34:28;;;;;;;93.93;39.63;;;2.20;96.00;;;;;;4979520;28;20226;-87
2023/12/09 01:36:54;;;;;;;86.83;29.00;;;2.30;96.00;;;;;;4979649;28;20191;-87
2023/12/09 01:39:20;;;;;;;80.93;30.23;;;2.20;96.00;;;;;;4979603;28;20252;-87
2023/12/09 01:41:45;;;;;;;103.07;41.93;;;2.30;95.90;;;;;;4979906;28;20186;-87
2023/12/09 01:44:11;;;;;;;98.30;39.57;;;2.20;95.90;;;;;;4979446;28;20686;-87
2023/12/09 01:46:38;;;;;;;120.17;41.90;;;2.20;95.90;;;;;;4979288;28;20190;-87
2023/12/09 01:49:04;;;;;;;119.53;32.13;;;2.10;95.90;;;;;;4979163;28;20203;-87
2023/12/09 01:51:30;;;;;;;91.00;30.83;;;2.20;96.00;;;;;;4979061;28;20180;-87
2023/12/09 01:53:56;;;;;;;121.33;38.13;;;2.10;95.90;;;;;;4996484;28;20237;-87
2023/12/09 01:56:22;;;;;;;103.43;38.07;;;2.10;96.00;;;;;;4979207;28;20589;-87
2023/12/09 01:58:48;;;;;;;105.13;37.20;;;2.20;96.00;;;;;;4979041;28;20202;-87
2023/12/09 02:01:14;;;;;;;116.83;33.40;;;2.10;96.00;;;;;;4996322;28;20173;-87
2023/12/09 02:03:40;;;;;;;142.57;32.87;;;2.10;96.10;;;;;;4979029;28;20214;-87
2023/12/09 02:06:05;;;;;;;149.13;40.07;;;2.00;96.00;;;;;;4978855;28;20319;-87
2023/12/09 02:08:32;;;;;;;125.00;38.17;;;2.00;96.10;;;;;;4978568;28;20218;-87
2023/12/09 02:11:20;;;;;;;154.27;40.63;;;2.00;96.20;;;;;;4996501;28;20175;-87
2023/12/09 02:14:01;;;;;;;174.50;32.73;;;2.00;96.20;;;;;;4979147;28;20661;-87
2023/12/09 02:16:42;;;;;;;185.30;33.47;;;2.00;96.20;;;;;;4978859;28;20174;-87
2023/12/09 02:19:11;;;;;;;183.27;39.87;;;2.00;96.20;;;;;;4978418;28;20612;-87
2023/12/09 02:22:15;;;;;;;200.83;40.80;;;2.00;96.30;;;;;;4996028;28;20594;-87
2023/12/09 02:24:41;;;;;;;203.23;33.47;;;2.00;96.30;;;;;;4898615;29;20724;-87
2023/12/09 02:27:24;;;;;;;244.17;37.70;;;2.00;96.30;;;;;;4898268;29;20177;-87
2023/12/09 02:30:10;;;;;;;228.17;35.43;;;1.90;96.30;;;;;;4954533;28;20590;-87
2023/12/09 02:32:38;;;;;;;270.90;38.90;;;1.90;96.30;;;;;;4978826;28;20642;-87
2023/12/09 02:35:05;;;;;;;211.00;36.43;;;1.90;96.30;;;;;;4978559;28;20182;-87
2023/12/09 02:37:32;;;;;;;202.17;34.43;;;2.00;96.30;;;;;;4995715;28;20202;-87
2023/12/09 02:39:59;;;;;;;235.03;40.20;;;2.00;96.40;;;;;;4978278;28;20225;-87
2023/12/09 02:42:26;;;;;;;190.77;35.40;;;2.00;96.40;;;;;;4995962;28;20232;-87
2023/12/09 02:44:52;;;;;;;192.57;34.13;;;2.10;96.40;;;;;;4978189;28;20293;-87
2023/12/09 02:47:17;;;;;;;220.67;39.60;;;2.10;96.40;;;;;;4978252;28;20277;-87
2023/12/09 02:49:43;;;;;;;208.33;40.97;;;2.10;96.40;;;;;;4978176;28;20197;-87
2023/12/09 02:52:10;;;;;;;194.93;40.27;;;2.20;96.50;;;;;;4978161;28;20265;-87
2023/12/09 02:54:35;;;;;;;173.53;42.23;;;2.20;96.50;;;;;;4978073;28;20174;-87
2023/12/09 02:57:01;;;;;;;205.27;41.93;;;2.30;96.60;;;;;;4978010;28;20190;-87
2023/12/09 02:59:28;;;;;;;155.77;42.67;;;2.30;96.60;;;;;;4977819;28;20205;-87
2023/12/09 03:01:54;;;;;;;166.70;43.37;;;2.30;96.60;;;;;;4977960;28;20185;-87
2023/12/09 03:04:20;;;;;;;297.67;42.80;;;2.30;96.60;;;;;;4977875;28;20199;-87
2023/12/09 03:06:45;;;;;;;140.23;39.87;;;2.40;96.60;;;;;;4994103;28;20588;-87
2023/12/09 03:09:11;;;;;;;123.27;38.10;;;2.40;96.60;;;;;;4995107;28;20222;-87
2023/12/09 03:11:36;;;;;;;227.87;41.63;;;2.50;96.60;;;;;;4977698;28;20199;-87
2023/12/09 03:14:02;;;;;;;192.70;41.17;;;2.30;96.60;;;;;;4995033;28;20273;-86
2023/12/09 03:16:27;;;;;;;233.13;40.40;;;2.30;96.60;;;;;;4977743;28;20689;-87
2023/12/09 03:18:53;;;;;;;219.00;43.73;;;2.30;96.60;;;;;;4977441;28;20221;-87
2023/12/09 03:21:18;;;;;;;205.63;37.27;;;2.30;96.60;;;;;;4994904;28;20177;-87
2023/12/09 03:23:44;;;;;;;253.17;37.57;;;2.30;96.60;;;;;;4977558;28;20650;-87
2023/12/09 03:26:18;;;;;;;274.17;41.43;;;2.30;96.70;;;;;;4978042;28;20178;-87
2023/12/09 03:28:44;;;;;;;193.03;46.07;;;2.30;96.70;;;;;;4977758;28;20229;-87
2023/12/09 03:31:13;;;;;;;226.90;44.43;;;2.30;96.70;;;;;;4994378;28;20212;-87
2023/12/09 03:33:39;;;;;;;149.10;39.33;;;2.40;96.70;;;;;;4995392;28;20712;-87
2023/12/09 03:36:07;;;;;;;188.57;39.53;;;2.40;96.80;;;;;;4977976;28;20184;-87
2023/12/09 03:38:33;;;;;;;140.37;38.80;;;2.40;96.80;;;;;;4977683;28;20198;-87
2023/12/09 03:40:58;;;;;;;170.47;45.60;;;2.40;96.80;;;;;;4977194;28;20186;-87
2023/12/09 03:43:24;;;;;;;241.97;43.77;;;2.40;96.80;;;;;;4994754;28;20207;-87
2023/12/09 03:45:49;;;;;;;273.97;43.23;;;2.40;96.80;;;;;;4995188;28;20284;-87
2023/12/09 03:48:15;;;;;;;184.93;38.80;;;2.50;96.80;;;;;;4976924;28;20200;-87
2023/12/09 03:50:40;;;;;;;236.70;41.23;;;2.50;96.80;;;;;;4977257;28;20261;-87
2023/12/09 03:53:06;;;;;;;200.03;42.03;;;2.50;96.80;;;;;;4977361;28;20172;-87
2023/12/09 03:55:31;;;;;;;214.53;40.17;;;2.50;96.90;;;;;;4994802;28;20174;-87
2023/12/09 03:57:57;;;;;;;255.37;44.83;;;2.40;96.80;;;;;;4993300;28;20179;-87
2023/12/09 04:00:23;;;;;;;245.40;42.53;;;2.50;96.90;;;;;;4977245;28;20189;-88
2023/12/09 04:02:48;;;;;;;205.73;40.37;;;2.60;96.90;;;;;;4994798;28;20189;-87
2023/12/09 04:05:14;;;;;;;278.80;44.87;;;2.50;96.90;;;;;;4994800;28;20249;-87
2023/12/09 04:07:40;;;;;;;275.33;43.40;;;2.50;96.90;;;;;;4976741;28;20193;-87
2023/12/09 04:10:06;;;;;;;236.17;47.37;;;2.60;96.90;;;;;;4976848;28;20229;-87
2023/12/09 04:12:32;;;;;;;278.57;50.77;;;2.60;97.00;;;;;;4994164;28;20233;-87
2023/12/09 04:14:57;;;;;;;261.00;48.70;;;2.70;97.00;;;;;;4994392;28;20257;-88
2023/12/09 04:17:23;;;;;;;248.40;49.47;;;2.70;97.00;;;;;;4976844;28;20633;-87
2023/12/09 04:19:51;;;;;;;247.50;46.03;;;2.70;97.00;;;;;;4994222;28;20210;-87
2023/12/09 04:22:17;;;;;;;323.37;48.10;;;2.70;97.00;;;;;;4976868;28;20564;-87
2023/12/09 04:24:42;;;;;;;257.70;52.50;;;2.70;97.00;;;;;;4976740;28;20288;-88
2023/12/09 04:27:08;;;;;;;280.03;49.93;;;2.70;97.10;;;;;;4976533;28;20176;-88
2023/12/09 04:29:34;;;;;;;333.17;54.60;;;2.70;97.10;;;;;;4976553;28;20237;-87
2023/12/09 04:31:59;;;;;;;306.33;51.13;;;2.80;97.10;;;;;;4976515;28;20547;-88
2023/12/09 04:34:25;;;;;;;344.37;52.93;;;2.80;97.10;;;;;;4992714;28;20190;-87
2023/12/09 04:36:50;;;;;;;254.40;52.30;;;2.80;97.10;;;;;;4993698;28;20181;-87
2023/12/09 04:39:16;;;;;;;250.07;51.37;;;2.80;97.10;;;;;;4977515;28;20520;-87
2023/12/09 04:41:42;;;;;;;315.97;52.87;;;2.80;97.10;;;;;;4993872;28;20218;-88
2023/12/09 04:44:08;;;;;;;310.53;49.43;;;2.80;97.10;;;;;;4993633;28;20298;-88
2023/12/09 04:46:34;;;;;;;340.33;51.90;;;2.80;97.10;;;;;;4993610;28;20610;-87
2023/12/09 04:48:59;;;;;;;343.70;58.10;;;2.80;97.10;;;;;;4976179;28;20207;-87
2023/12/09 04:51:25;;;;;;;346.80;57.40;;;2.90;97.10;;;;;;4976452;28;20182;-87
2023/12/09 04:53:51;;;;;;;237.20;54.67;;;2.90;97.20;;;;;;4993895;28;20262;-87
2023/12/09 04:56:17;;;;;;;311.50;54.30;;;2.90;97.20;;;;;;4993782;28;20167;-88
2023/12/09 04:58:43;;;;;;;269.63;49.43;;;3.00;97.20;;;;;;4993980;28;20203;-88
2023/12/09 05:01:08;;;;;;;339.80;56.00;;;3.00;97.20;;;;;;4993724;28;20174;-88
2023/12/09 05:03:34;;;;;;;276.90;53.83;;;2.90;97.20;;;;;;4994032;28;20582;-88
2023/12/09 05:06:00;;;;;;;310.47;56.13;;;3.00;97.20;;;;;;4976076;28;20177;-88
2023/12/09 05:08:27;;;;;;;342.37;53.00;;;2.90;97.20;;;;;;4975955;28;20230;-88
2023/12/09 05:10:52;;;;;;;401.33;61.10;;;2.90;97.20;;;;;;4975964;28;20653;-88
2023/12/09 05:13:18;;;;;;;330.57;55.33;;;2.90;97.20;;;;;;4976320;28;20183;-88
2023/12/09 05:15:44;;;;;;;352.93;54.10;;;3.00;97.20;;;;;;4976164;28;20667;-88
2023/12/09 05:18:09;;;;;;;329.90;52.40;;;2.90;97.20;;;;;;4993629;28;20272;-88
2023/12/09 05:20:35;;;;;;;305.00;52.23;;;2.90;97.20;;;;;;4976334;28;20188;-91
2023/12/09 05:23:00;;;;;;;255.43;56.57;;;3.00;97.30;;;;;;4975897;28;20184;-88
2023/12/09 05:25:26;;;;;;;329.20;56.40;;;3.00;97.20;;;;;;4993855;28;20572;-87
2023/12/09 05:27:51;;;;;;;357.20;58.87;;;3.10;97.30;;;;;;4992131;28;20224;-87
2023/12/09 05:30:17;;;;;;;267.50;56.05;;;3.20;97.30;;;;;;4975746;28;20826;-87
2023/12/09 05:32:42;;;;;;;330.33;60.43;;;3.10;97.30;;;;;;4992424;28;20212;-88
2023/12/09 05:35:10;;;;;;;360.13;57.57;;;3.10;97.30;;;;;;4993313;28;20638;-88
2023/12/09 05:37:35;;;;;;;322.70;61.00;;;3.10;97.30;;;;;;4975817;28;20185;-88
2023/12/09 05:40:02;;;;;;;384.27;65.93;;;3.00;97.30;;;;;;4975872;28;20225;-88
2023/12/09 05:42:27;;;;;;;354.23;56.80;;;3.00;97.30;;;;;;4975611;28;20223;-88
2023/12/09 05:44:53;;;;;;;386.47;59.57;;;3.00;97.30;;;;;;4975613;28;20233;-88
2023/12/09 05:47:19;;;;;;;429.33;61.93;;;3.10;97.30;;;;;;4975927;28;20214;-88
2023/12/09 05:49:44;;;;;;;330.40;56.83;;;3.10;97.30;;;;;;4993255;28;20270;-88
2023/12/09 05:52:10;;;;;;;355.93;60.97;;;3.10;97.30;;;;;;4975650;28;20552;-88
2023/12/09 05:54:37;;;;;;;277.97;58.13;;;3.10;97.30;;;;;;4994896;28;20178;-88
2023/12/09 05:57:03;;;;;;;402.57;63.77;;;3.10;97.30;;;;;;4979209;28;20176;-88
2023/12/09 05:59:28;;;;;;;361.40;63.57;;;3.10;97.30;;;;;;4979008;28;20204;-87
2023/12/09 06:01:55;;;;;;;398.07;63.43;;;3.10;97.30;;;;;;4996623;28;20174;-88
2023/12/09 06:04:20;;;;;;;383.43;63.50;;;3.10;97.30;;;;;;4978794;28;20205;-88
2023/12/09 06:06:46;;;;;;;301.13;58.57;;;3.10;97.30;;;;;;4996323;28;20182;-89
2023/12/09 06:09:11;;;;;;;252.60;56.70;;;3.10;97.30;;;;;;4978948;28;20210;-88
2023/12/09 06:11:37;;;;;;;343.23;59.07;;;3.20;97.40;;;;;;4979106;28;20641;-87
2023/12/09 06:14:03;;;;;;;376.07;59.07;;;3.30;97.40;;;;;;4978990;28;20211;-88
2023/12/09 06:16:28;;;;;;;293.83;58.13;;;3.30;97.40;;;;;;4979477;28;20239;-88
2023/12/09 06:18:54;;;;;;;277.47;57.20;;;3.20;97.40;;;;;;4979382;28;20200;-88
2023/12/09 06:21:25;;;;;;;248.33;55.70;;;3.20;97.40;;;;;;4996387;28;20192;-87
2023/12/09 06:23:51;;;;;;;248.87;55.77;;;3.20;97.40;;;;;;4996467;28;20568;-88
2023/12/09 06:26:17;;;;;;;237.33;53.87;;;3.30;97.40;;;;;;4996947;28;20263;-88
2023/12/09 06:28:43;;;;;;;233.80;52.43;;;3.30;97.40;;;;;;4996585;28;20745;-88
2023/12/09 06:31:11;;;;;;;266.13;58.40;;;3.30;97.40;;;;;;4996638;28;20172;-87
2023/12/09 06:33:37;;;;;;;233.80;55.33;;;3.40;97.40;;;;;;4979041;28;20178;-88
2023/12/09 06:36:04;;;;;;;221.43;55.07;;;3.30;97.40;;;;;;4978686;28;20193;-88
2023/12/09 06:38:29;;;;;;;238.10;54.83;;;3.30;97.40;;;;;;4978528;28;20231;-88
2023/12/09 06:40:55;;;;;;;223.30;52.13;;;3.40;97.40;;;;;;4978678;28;20209;-88
2023/12/09 06:43:21;;;;;;;222.37;51.67;;;3.40;97.40;;;;;;4978590;28;20184;-89
2023/12/09 06:45:46;;;;;;;255.53;55.10;;;3.40;97.50;;;;;;4978220;28;20202;-88
2023/12/09 06:48:12;;;;;;;198.47;55.87;;;3.50;97.50;;;;;;4996309;28;20171;-88
2023/12/09 06:50:38;;;;;;;181.30;50.90;;;3.50;97.50;;;;;;4978385;28;20177;-86
2023/12/09 06:53:03;;;;;;;184.27;51.53;;;3.50;97.50;;;;;;4978420;28;20177;-88
2023/12/09 06:55:29;;;;;;;221.57;51.03;;;3.50;97.50;;;;;;4978407;28;20188;-89
2023/12/09 06:57:54;;;;;;;225.53;50.57;;;3.40;97.50;;;;;;4996061;28;20201;-88
2023/12/09 07:00:20;;;;;;;197.77;50.23;;;3.50;97.50;;;;;;4994238;28;20202;-90
2023/12/09 07:02:46;;;;;;;197.90;52.07;;;3.50;97.50;;;;;;4978641;28;20196;-88
2023/12/09 07:05:15;;;;;;;191.40;53.20;;;3.50;97.50;;;;;;4995397;28;20237;-86
2023/12/09 07:07:41;;;;;;;205.67;53.93;;;3.50;97.50;;;;;;4995928;28;20693;-86
2023/12/09 07:10:07;;;;;;;196.83;54.13;;;3.60;97.50;;;;;;4978806;28;20314;-86
2023/12/09 07:12:33;;;;;;;205.87;52.33;;;3.60;97.50;;;;;;4978704;28;20646;-86
2023/12/09 07:14:59;;;;;;;252.90;54.40;;;3.60;97.50;;;;;;4978978;28;20192;-86
2023/12/09 07:17:25;;;;;;;207.10;52.87;;;3.60;97.50;;;;;;4978703;28;20174;-85
2023/12/09 07:19:52;;;;;;;236.77;55.80;;;3.50;97.50;;;;;;4996293;28;20333;-86
2023/12/09 07:22:18;;;;;;;222.57;52.13;;;3.60;97.50;;;;;;4996580;28;20177;-86
2023/12/09 07:24:44;;;;;;;207.77;52.87;;;3.50;97.50;;;;;;4978237;28;20203;-86
2023/12/09 07:27:09;;;;;;;184.90;54.23;;;3.60;97.50;;;;;;4996207;28;20213;-87
2023/12/09 07:29:35;;;;;;;199.90;53.30;;;3.50;97.50;;;;;;4978211;28;20192;-86
2023/12/09 07:32:00;;;;;;;186.53;51.80;;;3.50;97.60;;;;;;4978833;28;20235;-86
2023/12/09 07:34:26;;;;;;;185.53;52.20;;;3.50;97.50;;;;;;4996815;28;20170;-86
2023/12/09 07:36:52;;;;;;;200.37;52.23;;;3.50;97.50;;;;;;4979152;28;20219;-86
2023/12/09 07:39:17;;;;;;;208.60;52.47;;;3.50;97.60;;;;;;4978986;28;20200;-86
2023/12/09 07:41:44;;;;;;;187.63;48.70;;;3.50;97.60;;;;;;4979150;28;20342;-86
2023/12/09 07:44:10;;;;;;;168.60;47.93;;;3.50;97.60;;;;;;4978658;28;20208;-86
2023/12/09 07:46:36;;;;;;;167.93;48.73;;;3.50;97.60;;;;;;4979335;28;20649;-86
2023/12/09 07:49:02;;;;;;;169.83;51.90;;;3.50;97.60;;;;;;4978700;28;20205;-86
2023/12/09 07:51:27;;;;;;;174.33;52.40;;;3.50;97.60;;;;;;4978918;28;20182;-86
2023/12/09 07:53:53;;;;;;;180.67;49.67;;;3.50;97.60;;;;;;4978252;28;20212;-86
2023/12/09 07:56:18;;;;;;;165.50;49.67;;;3.60;97.60;;;;;;4996002;28;20176;-86
2023/12/09 07:58:45;;;;;;;169.20;53.40;;;3.50;97.60;;;;;;4978525;28;20327;-86
2023/12/09 08:01:11;;;;;;;161.60;53.57;;;3.60;97.60;;;;;;4995483;28;20183;-86
2023/12/09 08:03:37;;;;;;;167.33;53.50;;;3.60;97.60;;;;;;4995615;28;20252;-85
2023/12/09 08:06:02;;;;;;;166.57;47.97;;;3.60;97.60;;;;;;4995638;28;20206;-86
2023/12/09 08:08:28;;;;;;;185.70;49.47;;;3.70;97.60;;;;;;4977974;28;20589;-85
2023/12/09 08:10:54;;;;;;;156.93;47.40;;;3.70;97.60;;;;;;4978542;28;20185;-86
2023/12/09 08:13:20;;;;;;;142.93;44.70;;;3.70;97.60;;;;;;4978415;28;20215;-85
2023/12/09 08:15:45;;;;;;;169.27;47.83;;;3.60;97.60;;;;;;4978723;28;20656;-85
2023/12/09 08:18:11;;;;;;;153.57;46.60;;;3.60;97.60;;;;;;4978058;28;20255;-86
2023/12/09 08:20:36;;;;;;;160.53;46.67;;;3.60;97.60;;;;;;4977527;28;20184;-86
2023/12/09 08:23:03;;;;;;;141.53;45.03;;;3.70;97.60;;;;;;4995201;28;20230;-85
2023/12/09 08:25:29;;;;;;;128.53;43.27;;;3.70;97.60;;;;;;4977421;28;20689;-86
2023/12/09 08:27:54;;;;;;;130.67;41.00;;;3.80;97.60;;;;;;4977884;28;20183;-86
2023/12/09 08:30:20;;;;;;;145.33;45.30;;;3.80;97.60;;;;;;4977746;28;20728;-85
2023/12/09 08:32:45;;;;;;;116.77;42.80;;;3.90;97.60;;;;;;4977732;28;20193;-86
2023/12/09 08:35:11;;;;;;;117.00;41.37;;;3.80;97.70;;;;;;4977855;28;20181;-86
2023/12/09 08:37:40;;;;;;;122.60;42.73;;;3.90;97.70;;;;;;4994751;28;20618;-86
2023/12/09 08:40:12;;;;;;;125.17;44.40;;;3.80;97.60;;;;;;4977221;28;20228;-85
2023/12/09 08:42:42;;;;;;;101.70;41.23;;;3.90;97.70;;;;;;4994646;28;20170;-85
2023/12/09 08:45:13;;;;;;;100.97;42.23;;;3.90;97.60;;;;;;4976952;28;20205;-85
2023/12/09 08:47:39;;;;;;;91.57;38.73;;;3.90;97.60;;;;;;4976684;28;20625;-85
2023/12/09 08:50:06;;;;;;;108.93;39.70;;;3.90;97.70;;;;;;4976862;28;20554;-85
2023/12/09 08:52:32;;;;;;;90.77;39.00;;;3.90;97.70;;;;;;4995488;28;20181;-86
2023/12/09 08:54:58;;;;;;;107.80;39.53;;;3.90;97.60;;;;;;4977631;28;20205;-85
2023/12/09 08:57:24;;;;;;;100.03;39.37;;;3.90;97.60;;;;;;4977570;28;20631;-85
2023/12/09 08:59:50;;;;;;;87.10;35.80;;;3.90;97.70;;;;;;4994942;28;20204;-85
2023/12/09 09:02:16;;;;;;;105.50;40.37;;;3.80;97.60;;;;;;4977738;28;20193;-85
2023/12/09 09:04:41;;;;;;;92.23;37.90;;;3.90;97.70;;;;;;4995034;28;20202;-85
2023/12/09 09:07:07;;;;;;;95.27;37.37;;;3.90;97.70;;;;;;4977135;28;20176;-85
2023/12/09 09:09:33;;;;;;;103.47;38.93;;;4.00;97.70;;;;;;4995260;28;20598;-86
2023/12/09 09:11:58;;;;;;;108.63;35.73;;;4.00;97.70;;;;;;4994460;28;20175;-85
2023/12/09 09:14:24;;;;;;;85.17;31.57;;;4.10;97.70;;;;;;4976860;28;20188;-85
2023/12/09 09:16:50;;;;;;;91.20;36.23;;;4.10;97.70;;;;;;4976192;28;20666;-85
2023/12/09 09:19:16;;;;;;;80.90;33.83;;;4.20;97.70;;;;;;4976364;28;20209;-85
2023/12/09 09:21:41;;;;;;;73.47;31.57;;;4.20;97.70;;;;;;4977049;28;20196;-85
2023/12/09 09:24:08;;;;;;;82.37;30.60;;;4.20;97.70;;;;;;4976785;28;20259;-85
2023/12/09 09:26:34;;;;;;;75.47;30.77;;;4.20;97.70;;;;;;4993825;28;20606;-85
2023/12/09 09:29:00;;;;;;;76.87;32.47;;;4.20;97.70;;;;;;4977811;28;20211;-85
2023/12/09 09:31:25;;;;;;;74.77;34.43;;;4.10;97.70;;;;;;4980188;28;20276;-84
2023/12/09 09:33:51;;;;;;;83.80;30.50;;;4.10;97.70;;;;;;4997347;28;20533;-86
2023/12/09 09:36:17;;;;;;;89.90;32.17;;;4.20;97.70;;;;;;4979947;28;20565;-85
2023/12/09 09:38:43;;;;;;;88.07;32.23;;;4.20;97.70;;;;;;4997529;28;20658;-85
2023/12/09 09:41:17;;;;;;;76.30;30.77;;;4.20;97.70;;;;;;4997528;28;20189;-85
2023/12/09 09:43:46;;;;;;;82.10;31.80;;;4.30;97.70;;;;;;4980744;28;20174;-85
2023/12/09 09:46:13;;;;;;;66.30;28.27;;;4.30;97.70;;;;;;4980727;28;20269;-85
2023/12/09 09:48:42;;;;;;;78.43;29.33;;;4.30;97.70;;;;;;4980102;28;20722;-85
2023/12/09 09:51:08;;;;;;;65.03;28.77;;;4.40;97.70;;;;;;4980152;28;20178;-87
2023/12/09 09:53:37;;;;;;;72.30;28.00;;;4.30;97.70;;;;;;4997512;28;20181;-86
2023/12/09 09:56:05;;;;;;;72.30;28.97;;;4.50;97.80;;;;;;4997341;28;20257;-85
2023/12/09 09:58:32;;;;;;;67.33;27.23;;;4.40;97.70;;;;;;4998051;28;20233;-85
2023/12/09 10:00:59;;;;;;;69.40;29.03;;;4.50;97.70;;;;;;4980062;28;20674;-85
2023/12/09 10:03:25;;;;;;;71.83;28.07;;;4.50;97.70;;;;;;4997603;28;20170;-85
2023/12/09 10:05:51;;;;;;;66.30;30.30;;;4.50;97.70;;;;;;4997443;28;20277;-86
2023/12/09 10:08:16;;;;;;;69.80;27.20;;;4.50;97.70;;;;;;4997352;28;20198;-85
2023/12/09 10:10:42;;;;;;;72.27;29.97;;;4.60;97.70;;;;;;4980039;28;20182;-85
2023/12/09 10:13:08;;;;;;;57.73;27.83;;;4.70;97.80;;;;;;4979510;28;20178;-86
2023/12/09 10:15:34;;;;;;;59.13;26.50;;;4.70;97.80;;;;;;4979611;28;20654;-85
2023/12/09 10:18:05;;;;;;;57.90;28.40;;;4.80;97.80;;;;;;4997101;28;20187;-85
2023/12/09 10:20:34;;;;;;;57.97;25.83;;;4.80;97.80;;;;;;4997235;28;20174;-85
2023/12/09 10:23:00;;;;;;;52.37;24.73;;;4.80;97.80;;;;;;4979412;28;20201;-85
2023/12/09 10:25:26;;;;;;;50.17;23.77;;;4.90;97.80;;;;;;4997373;28;20281;-85
2023/12/09 10:27:51;;;;;;;51.50;24.33;;;4.80;97.80;;;;;;4979517;28;20201;-85
2023/12/09 10:30:20;;;;;;;52.00;24.77;;;4.80;97.80;;;;;;4995527;28;20721;-85
2023/12/09 10:32:49;;;;;;;50.93;24.43;;;4.80;97.70;;;;;;4978848;28;20185;-85
2023/12/09 10:35:18;;;;;;;51.47;24.70;;;4.80;97.80;;;;;;4995380;28;20186;-85
2023/12/09 10:37:43;;;;;;;61.50;27.70;;;4.90;97.80;;;;;;4979198;28;20209;-85
2023/12/09 10:40:10;;;;;;;66.07;28.60;;;4.90;97.80;;;;;;4996929;28;20516;-85
2023/12/09 10:42:37;;;;;;;57.83;24.73;;;5.00;97.80;;;;;;4996789;28;20178;-85
2023/12/09 10:45:11;;;;;;;61.50;20.33;;;5.00;97.80;;;;;;4978825;28;20260;-85
2023/12/09 10:47:37;;;;;;;50.37;23.47;;;5.10;97.80;;;;;;4979410;28;20174;-85
2023/12/09 10:50:03;;;;;;;42.20;21.03;;;5.10;97.80;;;;;;4996028;28;20688;-85
2023/12/09 10:52:29;;;;;;;47.97;19.37;;;5.00;97.80;;;;;;4979049;28;20178;-85
2023/12/09 10:54:57;;;;;;;45.87;19.03;;;5.00;97.70;;;;;;4979369;28;20205;-85
2023/12/09 10:57:23;;;;;;;41.03;19.43;;;4.90;97.70;;;;;;4978867;28;20182;-85
2023/12/09 10:59:49;;;;;;;42.13;22.20;;;4.90;97.70;;;;;;4996773;28;20246;-85
2023/12/09 11:02:16;;;;;;;45.63;21.97;;;4.90;97.70;;;;;;4978785;28;20237;-85
2023/12/09 11:04:43;;;;;;;40.43;19.10;;;5.00;97.70;;;;;;4978433;28;20201;-85
2023/12/09 11:07:09;;;;;;;35.40;17.63;;;5.00;97.70;;;;;;4978220;28;20182;-85
2023/12/09 11:09:34;;;;;;;50.20;19.97;;;5.00;97.70;;;;;;4977901;28;20218;-85
2023/12/09 11:12:00;;;;;;;40.83;18.37;;;5.00;97.70;;;;;;4978209;28;20240;-85
2023/12/09 11:14:27;;;;;;;49.23;19.43;;;5.10;97.70;;;;;;4978412;28;20182;-85
2023/12/09 11:16:53;;;;;;;41.07;19.77;;;5.20;97.80;;;;;;4978857;28;20180;-85
2023/12/09 11:19:19;;;;;;;45.33;18.97;;;5.30;97.70;;;;;;4996219;28;20306;-85
2023/12/09 11:21:46;;;;;;;46.33;19.60;;;5.40;97.80;;;;;;4995807;28;20226;-85
2023/12/09 11:24:13;;;;;;;45.90;20.23;;;5.40;97.80;;;;;;4995927;28;20224;-85
2023/12/09 11:26:41;;;;;;;42.00;17.67;;;5.60;97.80;;;;;;4978627;28;20266;-86
2023/12/09 11:29:08;;;;;;;41.57;17.40;;;5.80;97.80;;;;;;4995868;28;20800;-85
2023/12/09 11:31:44;;;;;;;32.93;18.60;;;5.90;97.80;;;;;;4995904;28;20185;-85
2023/12/09 11:34:15;;;;;;;36.53;19.57;;;6.00;97.80;;;;;;4996080;28;20162;-86
2023/12/09 11:36:42;;;;;;;30.80;18.07;;;5.90;97.70;;;;;;4995779;28;20622;-85
2023/12/09 11:39:12;;;;;;;35.43;20.23;;;6.00;97.70;;;;;;4995659;28;20190;-85
2023/12/09 11:41:40;;;;;;;35.33;20.23;;;6.10;97.70;;;;;;4995892;28;20165;-85
2023/12/09 11:44:07;;;;;;;35.63;18.43;;;6.10;97.70;;;;;;4978117;28;20190;-85
2023/12/09 11:46:33;;;;;;;30.93;18.27;;;6.00;97.70;;;;;;4978598;28;20668;-85
2023/12/09 11:49:00;;;;;;;31.17;17.10;;;6.10;97.60;;;;;;4995628;28;20197;-85
2023/12/09 11:51:27;;;;;;;30.83;17.50;;;6.10;97.60;;;;;;4977587;28;20210;-85
2023/12/09 11:53:58;;;;;;;31.03;18.00;;;6.10;97.60;;;;;;4978100;28;20176;-85
2023/12/09 11:56:27;;;;;;;25.67;17.83;;;6.00;97.50;;;;;;4995477;28;20184;-85
2023/12/09 11:58:53;;;;;;;32.90;17.97;;;6.00;97.50;;;;;;4977760;28;20190;-85
2023/12/09 12:01:19;;;;;;;31.37;18.03;;;6.00;97.50;;;;;;4994982;28;20170;-85
2023/12/09 12:03:47;;;;;;;28.53;18.63;;;6.00;97.40;;;;;;4977150;28;20140;-85
2023/12/09 12:06:14;;;;;;;29.60;19.70;;;6.00;97.30;;;;;;4994554;28;20209;-85
2023/12/09 12:08:40;;;;;;;35.63;20.57;;;5.90;97.30;;;;;;4977270;28;20242;-85
2023/12/09 12:11:06;;;;;;;32.63;19.50;;;5.80;97.20;;;;;;4994585;28;20206;-85
2023/12/09 12:13:32;;;;;;;27.10;17.87;;;5.80;97.20;;;;;;4994539;28;20170;-85
2023/12/09 12:15:58;;;;;;;32.87;19.03;;;5.80;97.10;;;;;;4994338;28;20177;-85
2023/12/09 12:18:24;;;;;;;30.63;19.50;;;5.80;97.10;;;;;;4976906;28;20284;-85
2023/12/09 12:20:50;;;;;;;32.63;20.00;;;5.80;97.00;;;;;;4977176;28;20666;-85
2023/12/09 12:23:15;;;;;;;23.10;15.23;;;5.90;97.00;;;;;;4995026;28;20577;-85
2023/12/09 12:25:41;;;;;;;26.13;15.43;;;5.80;96.90;;;;;;4995231;28;20709;-85
2023/12/09 12:28:07;;;;;;;28.73;15.30;;;5.80;96.80;;;;;;4995274;28;20582;-86